sensor_id;sensor_type;location;lat;lon;timestamp;P1;durP1;ratioP1;P2;durP2;ratioP2
22234;SDS011;11286;45.596;5.284;2023-03-16T00:00:51;6.95;;;4.95;;
22234;SDS011;11286;45.596;5.284;2023-03-16T00:03:17;7.95;;;4.78;;
22234;SDS011;11286;45.596;5.284;2023-03-16T00:05:48;11.10;;;5.30;;
22234;SDS011;11286;45.596;5.284;2023-03-16T00:08:16;6.95;;;5.03;;
22234;SDS011;11286;45.596;5.284;2023-03-16T00:10:43;8.90;;;5.10;;
22234;SDS011;11286;45.596;5.284;2023-03-16T00:13:13;7.20;;;4.65;;
22234;SDS011;11286;45.596;5.284;2023-03-16T00:15:49;6.88;;;4.78;;
22234;SDS011;11286;45.596;5.284;2023-03-16T00:18:16;8.35;;;4.28;;
22234;SDS011;11286;45.596;5.284;2023-03-16T00:20:41;6.72;;;4.50;;
22234;SDS011;11286;45.596;5.284;2023-03-16T00:23:07;8.32;;;4.90;;
22234;SDS011;11286;45.596;5.284;2023-03-16T00:25:32;7.55;;;4.65;;
22234;SDS011;11286;45.596;5.284;2023-03-16T00:27:58;7.72;;;4.93;;
22234;SDS011;11286;45.596;5.284;2023-03-16T00:30:28;7.43;;;4.60;;
22234;SDS011;11286;45.596;5.284;2023-03-16T00:32:54;6.82;;;4.57;;
22234;SDS011;11286;45.596;5.284;2023-03-16T00:35:19;6.72;;;4.47;;
22234;SDS011;11286;45.596;5.284;2023-03-16T00:37:45;6.45;;;4.57;;
22234;SDS011;11286;45.596;5.284;2023-03-16T00:40:11;6.80;;;4.68;;
22234;SDS011;11286;45.596;5.284;2023-03-16T00:42:37;7.85;;;4.90;;
22234;SDS011;11286;45.596;5.284;2023-03-16T00:45:03;6.45;;;4.72;;
22234;SDS011;11286;45.596;5.284;2023-03-16T00:47:30;6.50;;;4.32;;
22234;SDS011;11286;45.596;5.284;2023-03-16T00:49:57;8.38;;;4.80;;
22234;SDS011;11286;45.596;5.284;2023-03-16T00:52:24;7.60;;;4.95;;
22234;SDS011;11286;45.596;5.284;2023-03-16T00:54:51;6.00;;;4.63;;
22234;SDS011;11286;45.596;5.284;2023-03-16T00:57:18;6.75;;;4.85;;
22234;SDS011;11286;45.596;5.284;2023-03-16T00:59:45;6.60;;;4.47;;
22234;SDS011;11286;45.596;5.284;2023-03-16T01:02:12;8.50;;;5.05;;
22234;SDS011;11286;45.596;5.284;2023-03-16T01:04:39;8.20;;;4.70;;
22234;SDS011;11286;45.596;5.284;2023-03-16T01:07:09;7.38;;;4.68;;
22234;SDS011;11286;45.596;5.284;2023-03-16T01:09:38;6.57;;;4.80;;
22234;SDS011;11286;45.596;5.284;2023-03-16T01:12:05;6.20;;;4.63;;
22234;SDS011;11286;45.596;5.284;2023-03-16T01:14:33;7.63;;;4.45;;
22234;SDS011;11286;45.596;5.284;2023-03-16T01:16:59;5.72;;;4.25;;
22234;SDS011;11286;45.596;5.284;2023-03-16T01:19:26;5.80;;;4.32;;
22234;SDS011;11286;45.596;5.284;2023-03-16T01:21:52;7.30;;;4.70;;
22234;SDS011;11286;45.596;5.284;2023-03-16T01:24:18;7.55;;;4.97;;
22234;SDS011;11286;45.596;5.284;2023-03-16T01:26:44;8.82;;;4.88;;
22234;SDS011;11286;45.596;5.284;2023-03-16T01:29:09;7.72;;;4.85;;
22234;SDS011;11286;45.596;5.284;2023-03-16T01:31:36;8.70;;;4.72;;
22234;SDS011;11286;45.596;5.284;2023-03-16T01:34:02;8.57;;;4.57;;
22234;SDS011;11286;45.596;5.284;2023-03-16T01:36:28;7.60;;;4.65;;
22234;SDS011;11286;45.596;5.284;2023-03-16T01:38:55;6.90;;;4.53;;
22234;SDS011;11286;45.596;5.284;2023-03-16T01:41:21;6.45;;;4.60;;
22234;SDS011;11286;45.596;5.284;2023-03-16T01:43:46;6.40;;;4.70;;
22234;SDS011;11286;45.596;5.284;2023-03-16T01:46:23;7.20;;;4.80;;
22234;SDS011;11286;45.596;5.284;2023-03-16T01:48:51;7.82;;;5.32;;
22234;SDS011;11286;45.596;5.284;2023-03-16T01:59:30;5.63;;;3.60;;
22234;SDS011;11286;45.596;5.284;2023-03-16T02:02:02;4.57;;;3.67;;
22234;SDS011;11286;45.596;5.284;2023-03-16T02:04:35;6.78;;;4.50;;
22234;SDS011;11286;45.596;5.284;2023-03-16T02:07:03;8.50;;;4.35;;
22234;SDS011;11286;45.596;5.284;2023-03-16T02:09:31;4.97;;;4.28;;
22234;SDS011;11286;45.596;5.284;2023-03-16T02:11:59;6.40;;;4.25;;
22234;SDS011;11286;45.596;5.284;2023-03-16T02:14:25;7.30;;;3.97;;
22234;SDS011;11286;45.596;5.284;2023-03-16T02:16:51;4.70;;;3.72;;
22234;SDS011;11286;45.596;5.284;2023-03-16T02:19:25;7.90;;;4.93;;
22234;SDS011;11286;45.596;5.284;2023-03-16T02:22:03;10.82;;;6.60;;
22234;SDS011;11286;45.596;5.284;2023-03-16T02:24:31;11.95;;;6.55;;
22234;SDS011;11286;45.596;5.284;2023-03-16T02:26:58;17.33;;;9.98;;
22234;SDS011;11286;45.596;5.284;2023-03-16T02:29:50;17.42;;;9.13;;
22234;SDS011;11286;45.596;5.284;2023-03-16T02:32:20;12.30;;;6.90;;
22234;SDS011;11286;45.596;5.284;2023-03-16T02:34:48;6.47;;;4.70;;
22234;SDS011;11286;45.596;5.284;2023-03-16T02:37:14;8.45;;;5.55;;
22234;SDS011;11286;45.596;5.284;2023-03-16T02:39:40;8.23;;;5.30;;
22234;SDS011;11286;45.596;5.284;2023-03-16T02:42:09;10.40;;;5.15;;
22234;SDS011;11286;45.596;5.284;2023-03-16T02:44:39;5.75;;;4.18;;
22234;SDS011;11286;45.596;5.284;2023-03-16T02:47:13;5.90;;;4.40;;
22234;SDS011;11286;45.596;5.284;2023-03-16T02:49:46;4.45;;;3.45;;
22234;SDS011;11286;45.596;5.284;2023-03-16T02:52:12;4.93;;;3.70;;
22234;SDS011;11286;45.596;5.284;2023-03-16T02:54:38;5.65;;;3.70;;
22234;SDS011;11286;45.596;5.284;2023-03-16T02:57:04;8.40;;;3.72;;
22234;SDS011;11286;45.596;5.284;2023-03-16T02:59:29;6.20;;;3.75;;
22234;SDS011;11286;45.596;5.284;2023-03-16T03:01:55;5.50;;;3.92;;
22234;SDS011;11286;45.596;5.284;2023-03-16T03:04:21;5.82;;;3.75;;
22234;SDS011;11286;45.596;5.284;2023-03-16T03:06:48;7.03;;;3.88;;
22234;SDS011;11286;45.596;5.284;2023-03-16T03:09:15;7.20;;;4.13;;
22234;SDS011;11286;45.596;5.284;2023-03-16T03:11:42;4.78;;;3.80;;
22234;SDS011;11286;45.596;5.284;2023-03-16T03:14:08;5.82;;;3.80;;
22234;SDS011;11286;45.596;5.284;2023-03-16T03:16:34;6.43;;;4.13;;
22234;SDS011;11286;45.596;5.284;2023-03-16T03:18:59;4.97;;;3.70;;
22234;SDS011;11286;45.596;5.284;2023-03-16T03:21:25;5.00;;;3.83;;
22234;SDS011;11286;45.596;5.284;2023-03-16T03:23:51;6.28;;;3.83;;
22234;SDS011;11286;45.596;5.284;2023-03-16T03:26:17;5.93;;;3.70;;
22234;SDS011;11286;45.596;5.284;2023-03-16T03:28:43;8.43;;;3.65;;
22234;SDS011;11286;45.596;5.284;2023-03-16T03:31:13;5.53;;;3.92;;
22234;SDS011;11286;45.596;5.284;2023-03-16T03:33:40;5.20;;;3.80;;
22234;SDS011;11286;45.596;5.284;2023-03-16T03:36:06;9.32;;;4.43;;
22234;SDS011;11286;45.596;5.284;2023-03-16T03:38:31;7.82;;;3.70;;
22234;SDS011;11286;45.596;5.284;2023-03-16T03:40:57;6.82;;;3.97;;
22234;SDS011;11286;45.596;5.284;2023-03-16T03:43:26;6.45;;;4.22;;
22234;SDS011;11286;45.596;5.284;2023-03-16T03:45:55;6.07;;;3.92;;
22234;SDS011;11286;45.596;5.284;2023-03-16T03:48:22;5.78;;;3.42;;
22234;SDS011;11286;45.596;5.284;2023-03-16T03:50:48;5.72;;;4.15;;
22234;SDS011;11286;45.596;5.284;2023-03-16T03:53:14;5.13;;;3.33;;
22234;SDS011;11286;45.596;5.284;2023-03-16T03:55:40;4.47;;;3.33;;
22234;SDS011;11286;45.596;5.284;2023-03-16T03:58:06;5.35;;;3.50;;
22234;SDS011;11286;45.596;5.284;2023-03-16T04:00:31;5.28;;;3.53;;
22234;SDS011;11286;45.596;5.284;2023-03-16T04:02:57;6.47;;;3.80;;
22234;SDS011;11286;45.596;5.284;2023-03-16T04:05:23;4.50;;;3.45;;
22234;SDS011;11286;45.596;5.284;2023-03-16T04:07:51;7.18;;;3.97;;
22234;SDS011;11286;45.596;5.284;2023-03-16T04:10:21;5.38;;;4.00;;
22234;SDS011;11286;45.596;5.284;2023-03-16T04:12:51;4.20;;;3.25;;
22234;SDS011;11286;45.596;5.284;2023-03-16T04:15:16;6.78;;;3.90;;
22234;SDS011;11286;45.596;5.284;2023-03-16T04:17:42;5.60;;;3.60;;
22234;SDS011;11286;45.596;5.284;2023-03-16T04:20:08;5.53;;;3.60;;
22234;SDS011;11286;45.596;5.284;2023-03-16T04:22:39;7.45;;;3.72;;
22234;SDS011;11286;45.596;5.284;2023-03-16T04:25:06;5.25;;;3.60;;
22234;SDS011;11286;45.596;5.284;2023-03-16T04:27:36;6.15;;;3.63;;
22234;SDS011;11286;45.596;5.284;2023-03-16T04:30:05;5.53;;;3.53;;
22234;SDS011;11286;45.596;5.284;2023-03-16T04:32:35;6.82;;;4.05;;
22234;SDS011;11286;45.596;5.284;2023-03-16T04:35:01;5.72;;;3.72;;
22234;SDS011;11286;45.596;5.284;2023-03-16T04:37:26;5.30;;;3.40;;
22234;SDS011;11286;45.596;5.284;2023-03-16T04:39:52;4.85;;;2.95;;
22234;SDS011;11286;45.596;5.284;2023-03-16T04:42:18;3.75;;;2.75;;
22234;SDS011;11286;45.596;5.284;2023-03-16T04:44:43;4.88;;;3.33;;
22234;SDS011;11286;45.596;5.284;2023-03-16T04:47:10;4.22;;;3.03;;
22234;SDS011;11286;45.596;5.284;2023-03-16T04:49:36;4.97;;;2.72;;
22234;SDS011;11286;45.596;5.284;2023-03-16T04:52:01;6.43;;;3.50;;
22234;SDS011;11286;45.596;5.284;2023-03-16T04:54:28;4.75;;;3.33;;
22234;SDS011;11286;45.596;5.284;2023-03-16T04:56:54;3.83;;;2.85;;
22234;SDS011;11286;45.596;5.284;2023-03-16T04:59:20;4.70;;;2.80;;
22234;SDS011;11286;45.596;5.284;2023-03-16T05:01:47;5.35;;;3.10;;
22234;SDS011;11286;45.596;5.284;2023-03-16T05:04:13;3.88;;;2.63;;
22234;SDS011;11286;45.596;5.284;2023-03-16T05:06:39;4.25;;;2.92;;
22234;SDS011;11286;45.596;5.284;2023-03-16T05:09:05;3.80;;;2.42;;
22234;SDS011;11286;45.596;5.284;2023-03-16T05:11:33;3.55;;;2.42;;
22234;SDS011;11286;45.596;5.284;2023-03-16T05:13:59;3.80;;;2.40;;
22234;SDS011;11286;45.596;5.284;2023-03-16T05:16:26;3.22;;;2.25;;
22234;SDS011;11286;45.596;5.284;2023-03-16T05:18:52;2.88;;;2.00;;
22234;SDS011;11286;45.596;5.284;2023-03-16T05:21:18;4.20;;;2.20;;
22234;SDS011;11286;45.596;5.284;2023-03-16T05:23:44;7.43;;;2.58;;
22234;SDS011;11286;45.596;5.284;2023-03-16T05:26:10;4.53;;;3.35;;
22234;SDS011;11286;45.596;5.284;2023-03-16T05:28:37;3.78;;;3.03;;
22234;SDS011;11286;45.596;5.284;2023-03-16T05:31:04;3.40;;;2.47;;
22234;SDS011;11286;45.596;5.284;2023-03-16T05:33:29;4.95;;;3.03;;
22234;SDS011;11286;45.596;5.284;2023-03-16T05:35:55;4.10;;;2.83;;
22234;SDS011;11286;45.596;5.284;2023-03-16T05:38:22;6.25;;;2.60;;
22234;SDS011;11286;45.596;5.284;2023-03-16T05:40:49;3.10;;;2.10;;
22234;SDS011;11286;45.596;5.284;2023-03-16T05:43:18;4.28;;;2.45;;
22234;SDS011;11286;45.596;5.284;2023-03-16T05:45:45;3.80;;;2.50;;
22234;SDS011;11286;45.596;5.284;2023-03-16T05:48:11;5.43;;;2.85;;
22234;SDS011;11286;45.596;5.284;2023-03-16T05:50:37;2.72;;;2.00;;
22234;SDS011;11286;45.596;5.284;2023-03-16T05:53:02;4.22;;;2.50;;
22234;SDS011;11286;45.596;5.284;2023-03-16T05:55:28;6.00;;;2.30;;
22234;SDS011;11286;45.596;5.284;2023-03-16T05:57:54;2.97;;;2.17;;
22234;SDS011;11286;45.596;5.284;2023-03-16T06:00:20;3.17;;;2.03;;
22234;SDS011;11286;45.596;5.284;2023-03-16T06:02:47;4.47;;;2.45;;
22234;SDS011;11286;45.596;5.284;2023-03-16T06:05:15;4.85;;;3.38;;
22234;SDS011;11286;45.596;5.284;2023-03-16T06:07:42;4.90;;;2.70;;
22234;SDS011;11286;45.596;5.284;2023-03-16T06:10:08;4.18;;;2.97;;
22234;SDS011;11286;45.596;5.284;2023-03-16T06:12:35;5.35;;;2.95;;
22234;SDS011;11286;45.596;5.284;2023-03-16T06:15:01;6.40;;;3.00;;
22234;SDS011;11286;45.596;5.284;2023-03-16T06:17:31;4.03;;;2.92;;
22234;SDS011;11286;45.596;5.284;2023-03-16T06:19:57;3.95;;;2.50;;
22234;SDS011;11286;45.596;5.284;2023-03-16T06:22:22;7.60;;;2.90;;
22234;SDS011;11286;45.596;5.284;2023-03-16T06:24:49;4.07;;;2.80;;
22234;SDS011;11286;45.596;5.284;2023-03-16T06:27:15;5.60;;;2.50;;
22234;SDS011;11286;45.596;5.284;2023-03-16T06:29:40;5.40;;;2.60;;
22234;SDS011;11286;45.596;5.284;2023-03-16T06:32:06;4.88;;;2.40;;
22234;SDS011;11286;45.596;5.284;2023-03-16T06:34:32;4.80;;;2.72;;
22234;SDS011;11286;45.596;5.284;2023-03-16T06:36:58;6.15;;;2.40;;
22234;SDS011;11286;45.596;5.284;2023-03-16T06:39:23;6.00;;;2.83;;
22234;SDS011;11286;45.596;5.284;2023-03-16T06:41:49;3.03;;;2.42;;
22234;SDS011;11286;45.596;5.284;2023-03-16T06:44:15;3.67;;;2.22;;
22234;SDS011;11286;45.596;5.284;2023-03-16T06:46:40;5.18;;;2.40;;
22234;SDS011;11286;45.596;5.284;2023-03-16T06:49:06;3.85;;;2.35;;
22234;SDS011;11286;45.596;5.284;2023-03-16T06:51:32;5.63;;;2.60;;
22234;SDS011;11286;45.596;5.284;2023-03-16T06:53:57;6.07;;;2.90;;
22234;SDS011;11286;45.596;5.284;2023-03-16T06:56:23;4.00;;;2.13;;
22234;SDS011;11286;45.596;5.284;2023-03-16T06:58:49;4.00;;;2.17;;
22234;SDS011;11286;45.596;5.284;2023-03-16T07:01:15;6.65;;;2.50;;
22234;SDS011;11286;45.596;5.284;2023-03-16T07:03:41;5.18;;;2.08;;
22234;SDS011;11286;45.596;5.284;2023-03-16T07:06:07;6.68;;;2.78;;
22234;SDS011;11286;45.596;5.284;2023-03-16T07:08:33;3.90;;;2.10;;
22234;SDS011;11286;45.596;5.284;2023-03-16T07:10:59;8.48;;;2.30;;
22234;SDS011;11286;45.596;5.284;2023-03-16T07:13:25;4.20;;;2.50;;
22234;SDS011;11286;45.596;5.284;2023-03-16T07:15:51;3.40;;;2.20;;
22234;SDS011;11286;45.596;5.284;2023-03-16T07:18:17;4.13;;;2.35;;
22234;SDS011;11286;45.596;5.284;2023-03-16T07:20:44;7.45;;;2.60;;
22234;SDS011;11286;45.596;5.284;2023-03-16T07:23:10;4.05;;;2.30;;
22234;SDS011;11286;45.596;5.284;2023-03-16T07:25:36;5.32;;;2.40;;
22234;SDS011;11286;45.596;5.284;2023-03-16T07:28:02;4.10;;;2.45;;
22234;SDS011;11286;45.596;5.284;2023-03-16T07:30:30;3.65;;;2.80;;
22234;SDS011;11286;45.596;5.284;2023-03-16T07:32:55;4.20;;;2.33;;
22234;SDS011;11286;45.596;5.284;2023-03-16T07:35:21;3.42;;;2.30;;
22234;SDS011;11286;45.596;5.284;2023-03-16T07:37:48;4.88;;;2.50;;
22234;SDS011;11286;45.596;5.284;2023-03-16T07:40:13;6.45;;;2.47;;
22234;SDS011;11286;45.596;5.284;2023-03-16T07:42:39;7.10;;;2.72;;
22234;SDS011;11286;45.596;5.284;2023-03-16T07:45:05;5.75;;;2.80;;
22234;SDS011;11286;45.596;5.284;2023-03-16T07:47:32;4.32;;;2.40;;
22234;SDS011;11286;45.596;5.284;2023-03-16T07:49:58;3.35;;;2.20;;
22234;SDS011;11286;45.596;5.284;2023-03-16T07:52:25;3.08;;;2.20;;
22234;SDS011;11286;45.596;5.284;2023-03-16T07:54:51;3.33;;;2.30;;
22234;SDS011;11286;45.596;5.284;2023-03-16T07:57:16;6.80;;;2.40;;
22234;SDS011;11286;45.596;5.284;2023-03-16T07:59:42;3.42;;;2.13;;
22234;SDS011;11286;45.596;5.284;2023-03-16T08:02:10;3.90;;;1.75;;
22234;SDS011;11286;45.596;5.284;2023-03-16T08:04:38;5.20;;;2.38;;
22234;SDS011;11286;45.596;5.284;2023-03-16T08:07:06;3.50;;;2.00;;
22234;SDS011;11286;45.596;5.284;2023-03-16T08:09:35;5.88;;;2.40;;
22234;SDS011;11286;45.596;5.284;2023-03-16T08:12:02;4.47;;;2.47;;
22234;SDS011;11286;45.596;5.284;2023-03-16T08:14:29;4.53;;;1.83;;
22234;SDS011;11286;45.596;5.284;2023-03-16T08:16:57;3.85;;;2.30;;
22234;SDS011;11286;45.596;5.284;2023-03-16T08:19:23;4.70;;;1.98;;
22234;SDS011;11286;45.596;5.284;2023-03-16T08:21:49;2.93;;;1.77;;
22234;SDS011;11286;45.596;5.284;2023-03-16T08:24:15;2.85;;;1.67;;
22234;SDS011;11286;45.596;5.284;2023-03-16T08:26:40;4.45;;;1.50;;
22234;SDS011;11286;45.596;5.284;2023-03-16T08:29:06;4.57;;;1.95;;
22234;SDS011;11286;45.596;5.284;2023-03-16T08:31:32;1.98;;;1.42;;
22234;SDS011;11286;45.596;5.284;2023-03-16T08:33:59;2.35;;;1.40;;
22234;SDS011;11286;45.596;5.284;2023-03-16T08:36:25;3.33;;;1.58;;
22234;SDS011;11286;45.596;5.284;2023-03-16T08:38:52;2.33;;;1.48;;
22234;SDS011;11286;45.596;5.284;2023-03-16T08:41:19;4.18;;;1.77;;
22234;SDS011;11286;45.596;5.284;2023-03-16T08:43:45;2.33;;;1.25;;
22234;SDS011;11286;45.596;5.284;2023-03-16T08:46:11;1.73;;;1.25;;
22234;SDS011;11286;45.596;5.284;2023-03-16T08:48:38;1.33;;;1.23;;
22234;SDS011;11286;45.596;5.284;2023-03-16T08:51:05;2.88;;;1.80;;
22234;SDS011;11286;45.596;5.284;2023-03-16T08:53:31;1.27;;;1.17;;
22234;SDS011;11286;45.596;5.284;2023-03-16T08:56:03;2.83;;;1.20;;
22234;SDS011;11286;45.596;5.284;2023-03-16T08:58:31;3.17;;;1.73;;
22234;SDS011;11286;45.596;5.284;2023-03-16T09:00:58;1.88;;;1.40;;
22234;SDS011;11286;45.596;5.284;2023-03-16T09:03:25;6.35;;;3.00;;
22234;SDS011;11286;45.596;5.284;2023-03-16T09:05:51;2.45;;;1.52;;
22234;SDS011;11286;45.596;5.284;2023-03-16T09:08:17;1.58;;;1.13;;
22234;SDS011;11286;45.596;5.284;2023-03-16T09:10:43;2.97;;;1.20;;
22234;SDS011;11286;45.596;5.284;2023-03-16T09:13:09;2.15;;;1.65;;
22234;SDS011;11286;45.596;5.284;2023-03-16T09:15:35;3.13;;;1.48;;
22234;SDS011;11286;45.596;5.284;2023-03-16T09:18:02;2.63;;;1.25;;
22234;SDS011;11286;45.596;5.284;2023-03-16T09:20:29;3.08;;;1.40;;
22234;SDS011;11286;45.596;5.284;2023-03-16T09:22:56;2.05;;;1.60;;
22234;SDS011;11286;45.596;5.284;2023-03-16T09:25:22;2.25;;;1.30;;
22234;SDS011;11286;45.596;5.284;2023-03-16T09:27:49;3.35;;;1.40;;
22234;SDS011;11286;45.596;5.284;2023-03-16T09:30:15;2.20;;;1.60;;
22234;SDS011;11286;45.596;5.284;2023-03-16T09:32:41;3.10;;;1.50;;
22234;SDS011;11286;45.596;5.284;2023-03-16T09:35:07;2.33;;;1.30;;
22234;SDS011;11286;45.596;5.284;2023-03-16T09:42:46;2.05;;;1.50;;
22234;SDS011;11286;45.596;5.284;2023-03-16T09:45:40;1.80;;;1.30;;
22234;SDS011;11286;45.596;5.284;2023-03-16T09:48:40;2.95;;;1.60;;
22234;SDS011;11286;45.596;5.284;2023-03-16T09:51:07;2.10;;;1.30;;
22234;SDS011;11286;45.596;5.284;2023-03-16T09:53:38;1.83;;;1.33;;
22234;SDS011;11286;45.596;5.284;2023-03-16T09:56:46;2.35;;;1.40;;
22234;SDS011;11286;45.596;5.284;2023-03-16T09:58:56;1.83;;;1.27;;
22234;SDS011;11286;45.596;5.284;2023-03-16T10:04:26;4.65;;;1.35;;
22234;SDS011;11286;45.596;5.284;2023-03-16T10:09:31;3.90;;;1.35;;
22234;SDS011;11286;45.596;5.284;2023-03-16T10:12:12;1.77;;;1.40;;
22234;SDS011;11286;45.596;5.284;2023-03-16T10:20:16;2.38;;;1.63;;
22234;SDS011;11286;45.596;5.284;2023-03-16T10:22:45;2.03;;;1.63;;
22234;SDS011;11286;45.596;5.284;2023-03-16T10:25:24;2.85;;;1.33;;
22234;SDS011;11286;45.596;5.284;2023-03-16T10:27:58;1.67;;;1.58;;
22234;SDS011;11286;45.596;5.284;2023-03-16T10:30:27;2.90;;;1.63;;
22234;SDS011;11286;45.596;5.284;2023-03-16T10:32:59;2.35;;;1.27;;
22234;SDS011;11286;45.596;5.284;2023-03-16T10:41:21;2.35;;;1.42;;
22234;SDS011;11286;45.596;5.284;2023-03-16T10:44:00;3.42;;;1.70;;
22234;SDS011;11286;45.596;5.284;2023-03-16T10:46:44;3.25;;;1.45;;
22234;SDS011;11286;45.596;5.284;2023-03-16T10:52:19;3.78;;;1.33;;
22234;SDS011;11286;45.596;5.284;2023-03-16T10:54:59;1.65;;;1.10;;
22234;SDS011;11286;45.596;5.284;2023-03-16T10:57:32;2.00;;;1.17;;
22234;SDS011;11286;45.596;5.284;2023-03-16T11:00:07;2.88;;;1.38;;
22234;SDS011;11286;45.596;5.284;2023-03-16T11:02:44;4.80;;;1.42;;
22234;SDS011;11286;45.596;5.284;2023-03-16T11:05:11;5.60;;;1.98;;
22234;SDS011;11286;45.596;5.284;2023-03-16T11:07:45;3.28;;;2.38;;
22234;SDS011;11286;45.596;5.284;2023-03-16T11:10:23;2.60;;;2.00;;
22234;SDS011;11286;45.596;5.284;2023-03-16T11:12:59;3.80;;;2.50;;
22234;SDS011;11286;45.596;5.284;2023-03-16T11:15:26;4.57;;;2.20;;
22234;SDS011;11286;45.596;5.284;2023-03-16T11:18:03;3.38;;;2.58;;
22234;SDS011;11286;45.596;5.284;2023-03-16T11:20:29;3.58;;;2.60;;
22234;SDS011;11286;45.596;5.284;2023-03-16T11:22:57;3.30;;;1.75;;
22234;SDS011;11286;45.596;5.284;2023-03-16T11:25:58;2.83;;;1.50;;
22234;SDS011;11286;45.596;5.284;2023-03-16T11:28:37;2.60;;;2.20;;
22234;SDS011;11286;45.596;5.284;2023-03-16T11:31:20;3.67;;;2.33;;
22234;SDS011;11286;45.596;5.284;2023-03-16T11:33:52;3.42;;;2.38;;
22234;SDS011;11286;45.596;5.284;2023-03-16T11:36:43;2.38;;;1.70;;
22234;SDS011;11286;45.596;5.284;2023-03-16T11:39:26;2.15;;;1.55;;
22234;SDS011;11286;45.596;5.284;2023-03-16T11:41:57;2.42;;;1.70;;
22234;SDS011;11286;45.596;5.284;2023-03-16T11:50:19;2.67;;;1.40;;
22234;SDS011;11286;45.596;5.284;2023-03-16T11:59:02;2.42;;;1.20;;
22234;SDS011;11286;45.596;5.284;2023-03-16T12:01:50;1.55;;;1.38;;
22234;SDS011;11286;45.596;5.284;2023-03-16T12:07:38;2.25;;;1.30;;
22234;SDS011;11286;45.596;5.284;2023-03-16T12:10:15;3.30;;;1.50;;
22234;SDS011;11286;45.596;5.284;2023-03-16T12:15:55;3.58;;;1.40;;
22234;SDS011;11286;45.596;5.284;2023-03-16T12:18:34;2.00;;;1.40;;
22234;SDS011;11286;45.596;5.284;2023-03-16T12:21:03;5.88;;;1.13;;
22234;SDS011;11286;45.596;5.284;2023-03-16T12:23:47;3.10;;;1.30;;
22234;SDS011;11286;45.596;5.284;2023-03-16T12:26:19;2.28;;;1.10;;
22234;SDS011;11286;45.596;5.284;2023-03-16T12:28:47;1.33;;;1.10;;
22234;SDS011;11286;45.596;5.284;2023-03-16T12:31:18;3.80;;;1.48;;
22234;SDS011;11286;45.596;5.284;2023-03-16T12:33:57;3.55;;;1.45;;
22234;SDS011;11286;45.596;5.284;2023-03-16T12:37:04;1.85;;;1.50;;
22234;SDS011;11286;45.596;5.284;2023-03-16T12:45:01;1.25;;;1.00;;
22234;SDS011;11286;45.596;5.284;2023-03-16T12:50:18;3.33;;;1.38;;
22234;SDS011;11286;45.596;5.284;2023-03-16T12:55:16;2.60;;;1.15;;
22234;SDS011;11286;45.596;5.284;2023-03-16T12:58:06;3.28;;;1.70;;
22234;SDS011;11286;45.596;5.284;2023-03-16T13:00:34;3.10;;;1.75;;
22234;SDS011;11286;45.596;5.284;2023-03-16T13:03:03;3.22;;;1.30;;
22234;SDS011;11286;45.596;5.284;2023-03-16T13:05:33;2.38;;;1.50;;
22234;SDS011;11286;45.596;5.284;2023-03-16T13:08:07;2.42;;;1.70;;
22234;SDS011;11286;45.596;5.284;2023-03-16T13:10:36;3.13;;;1.70;;
22234;SDS011;11286;45.596;5.284;2023-03-16T13:13:10;2.05;;;1.77;;
22234;SDS011;11286;45.596;5.284;2023-03-16T13:15:38;2.83;;;1.60;;
22234;SDS011;11286;45.596;5.284;2023-03-16T13:20:57;3.05;;;1.83;;
22234;SDS011;11286;45.596;5.284;2023-03-16T13:24:12;3.25;;;2.30;;
22234;SDS011;11286;45.596;5.284;2023-03-16T13:26:37;3.20;;;2.63;;
22234;SDS011;11286;45.596;5.284;2023-03-16T13:29:19;5.13;;;3.00;;
22234;SDS011;11286;45.596;5.284;2023-03-16T13:31:45;3.20;;;2.90;;
22234;SDS011;11286;45.596;5.284;2023-03-16T13:34:18;4.30;;;3.83;;
22234;SDS011;11286;45.596;5.284;2023-03-16T13:37:11;4.07;;;3.60;;
22234;SDS011;11286;45.596;5.284;2023-03-16T13:39:39;5.18;;;3.67;;
22234;SDS011;11286;45.596;5.284;2023-03-16T13:42:17;4.03;;;3.00;;
22234;SDS011;11286;45.596;5.284;2023-03-16T13:44:45;3.25;;;2.92;;
22234;SDS011;11286;45.596;5.284;2023-03-16T13:47:14;3.45;;;2.67;;
22234;SDS011;11286;45.596;5.284;2023-03-16T13:49:44;3.30;;;3.00;;
22234;SDS011;11286;45.596;5.284;2023-03-16T13:52:25;5.07;;;3.00;;
22234;SDS011;11286;45.596;5.284;2023-03-16T13:54:57;3.92;;;3.17;;
22234;SDS011;11286;45.596;5.284;2023-03-16T13:57:29;4.20;;;3.22;;
22234;SDS011;11286;45.596;5.284;2023-03-16T14:02:55;6.80;;;3.95;;
22234;SDS011;11286;45.596;5.284;2023-03-16T14:05:27;4.85;;;4.22;;
22234;SDS011;11286;45.596;5.284;2023-03-16T14:07:55;5.15;;;4.22;;
22234;SDS011;11286;45.596;5.284;2023-03-16T14:10:25;4.07;;;2.55;;
22234;SDS011;11286;45.596;5.284;2023-03-16T14:13:06;3.50;;;2.70;;
22234;SDS011;11286;45.596;5.284;2023-03-16T14:15:34;5.90;;;2.78;;
22234;SDS011;11286;45.596;5.284;2023-03-16T14:18:07;3.35;;;3.05;;
22234;SDS011;11286;45.596;5.284;2023-03-16T14:20:40;4.80;;;3.50;;
22234;SDS011;11286;45.596;5.284;2023-03-16T14:23:40;3.25;;;2.67;;
22234;SDS011;11286;45.596;5.284;2023-03-16T14:26:04;2.80;;;2.60;;
22234;SDS011;11286;45.596;5.284;2023-03-16T14:28:36;5.13;;;3.90;;
22234;SDS011;11286;45.596;5.284;2023-03-16T14:31:04;4.22;;;3.83;;
22234;SDS011;11286;45.596;5.284;2023-03-16T14:33:34;4.65;;;3.70;;
22234;SDS011;11286;45.596;5.284;2023-03-16T14:36:12;5.57;;;3.75;;
22234;SDS011;11286;45.596;5.284;2023-03-16T14:38:43;5.05;;;3.63;;
22234;SDS011;11286;45.596;5.284;2023-03-16T14:41:24;6.07;;;3.65;;
22234;SDS011;11286;45.596;5.284;2023-03-16T14:43:59;3.38;;;2.67;;
22234;SDS011;11286;45.596;5.284;2023-03-16T14:46:26;4.50;;;2.67;;
22234;SDS011;11286;45.596;5.284;2023-03-16T14:51:45;3.58;;;2.33;;
22234;SDS011;11286;45.596;5.284;2023-03-16T14:54:15;3.58;;;1.70;;
22234;SDS011;11286;45.596;5.284;2023-03-16T14:56:42;2.15;;;1.55;;
22234;SDS011;11286;45.596;5.284;2023-03-16T14:59:12;3.53;;;1.55;;
22234;SDS011;11286;45.596;5.284;2023-03-16T15:01:37;1.70;;;1.45;;
22234;SDS011;11286;45.596;5.284;2023-03-16T15:04:03;2.45;;;1.65;;
22234;SDS011;11286;45.596;5.284;2023-03-16T15:06:30;4.90;;;1.70;;
22234;SDS011;11286;45.596;5.284;2023-03-16T15:08:56;2.92;;;1.80;;
22234;SDS011;11286;45.596;5.284;2023-03-16T15:11:22;3.53;;;2.10;;
22234;SDS011;11286;45.596;5.284;2023-03-16T15:13:50;1.90;;;1.70;;
22234;SDS011;11286;45.596;5.284;2023-03-16T15:16:17;3.40;;;2.00;;
22234;SDS011;11286;45.596;5.284;2023-03-16T15:18:44;2.65;;;1.75;;
22234;SDS011;11286;45.596;5.284;2023-03-16T15:23:37;2.63;;;1.70;;
22234;SDS011;11286;45.596;5.284;2023-03-16T15:26:04;3.85;;;2.00;;
22234;SDS011;11286;45.596;5.284;2023-03-16T15:28:31;5.60;;;2.20;;
22234;SDS011;11286;45.596;5.284;2023-03-16T15:30:58;3.38;;;2.10;;
22234;SDS011;11286;45.596;5.284;2023-03-16T15:33:25;3.88;;;2.22;;
22234;SDS011;11286;45.596;5.284;2023-03-16T15:35:52;3.95;;;3.28;;
22234;SDS011;11286;45.596;5.284;2023-03-16T15:40:55;4.45;;;3.65;;
22234;SDS011;11286;45.596;5.284;2023-03-16T15:43:22;5.22;;;3.90;;
22234;SDS011;11286;45.596;5.284;2023-03-16T15:45:49;3.40;;;2.70;;
22234;SDS011;11286;45.596;5.284;2023-03-16T15:48:16;6.30;;;2.78;;
22234;SDS011;11286;45.596;5.284;2023-03-16T15:50:45;4.60;;;2.95;;
22234;SDS011;11286;45.596;5.284;2023-03-16T15:55:47;4.82;;;3.25;;
22234;SDS011;11286;45.596;5.284;2023-03-16T15:58:21;4.18;;;3.78;;
22234;SDS011;11286;45.596;5.284;2023-03-16T16:00:49;4.65;;;3.28;;
22234;SDS011;11286;45.596;5.284;2023-03-16T16:03:21;3.95;;;2.95;;
22234;SDS011;11286;45.596;5.284;2023-03-16T16:05:47;4.18;;;3.22;;
22234;SDS011;11286;45.596;5.284;2023-03-16T16:08:13;3.90;;;3.10;;
22234;SDS011;11286;45.596;5.284;2023-03-16T16:10:40;3.75;;;2.95;;
22234;SDS011;11286;45.596;5.284;2023-03-16T16:13:39;4.72;;;2.75;;
22234;SDS011;11286;45.596;5.284;2023-03-16T16:15:59;4.50;;;2.92;;
22234;SDS011;11286;45.596;5.284;2023-03-16T16:18:26;4.80;;;2.65;;